Terminal Aerodrome Forecast
Issued by NWS

Home | Current Version | Previous Version | Text Only | Print | Product List | Glossary On
Versions: 1 2 3 4 5 6 7 8 9 10 11 12 13 14 15 16 17 18 19 20 21 22 23 24 25 26 27 28 29 30 31 32 33 34 35 36 37 38 39
000
FTUS43 KGRB 050815 AAA
TAFRHI
TAF AMD
KRHI 050815Z 0508/0606 VRB02KT 6SM BR BKN100
      TEMPO 0508/0509 3SM BR BKN002
     FM050900 VRB02KT 4SM BR SCT004 BKN015
      TEMPO 0509/0513 1/2SM FG BKN002
     FM051500 17005KT P6SM BKN010
     FM051700 20007KT P6SM BKN025
     FM052200 19006KT P6SM SCT035
     FM060500 VRB03KT 5SM BR SKC=

USA.gov is the U.S. government's official web portal to all federal, state and local government web resources and services.